Terminal Aerodrome Forecast
Issued by NWS

Home | Current Version | Previous Version | Text Only | Print | Product List | Glossary On
Versions: 1 2 3 4 5 6 7 8 9 10 11 12 13 14 15 16 17 18 19 20 21 22 23
629
FTUS43 KTOP 210526
TAFMHK
TAF
KMHK 210526Z 2106/2206 24004KT 3SM BR BKN120
      TEMPO 2106/2110 1/4SM FG VV002
     FM211000 04004KT 3SM BR OVC130
     FM211300 24005KT 5SM BR SCT110
     FM211600 22004KT P6SM FEW200=

USA.gov is the U.S. government's official web portal to all federal, state and local government web resources and services.